createdAt,value
2023-02-27T00:00:48.295Z,72.03
2023-02-27T00:03:10.373Z,72.10
2023-02-27T00:05:25.632Z,72.26
2023-02-27T00:07:38.932Z,72.30
2023-02-27T00:09:52.579Z,72.46
2023-02-27T00:12:06.998Z,72.55
2023-02-27T00:14:20.583Z,72.52
2023-02-27T00:16:34.546Z,72.64
2023-02-27T00:18:47.923Z,72.78
2023-02-27T00:21:01.064Z,73.02
2023-02-27T00:23:14.542Z,73.22
2023-02-27T00:25:28.074Z,73.54
2023-02-27T00:27:41.462Z,74.32
2023-02-27T00:29:54.774Z,73.95
2023-02-27T00:32:08.102Z,72.58
2023-02-27T00:34:21.573Z,72.43
2023-02-27T00:36:35.784Z,72.86
2023-02-27T00:38:50.570Z,73.33
2023-02-27T00:41:04.788Z,73.90
2023-02-27T00:43:18.509Z,74.46
2023-02-27T00:45:32.575Z,74.52
2023-02-27T00:47:47.118Z,74.79
2023-02-27T00:50:01.875Z,75.13
2023-02-27T00:52:15.399Z,75.39
2023-02-27T00:54:28.629Z,75.38
2023-02-27T00:56:42.571Z,75.35
2023-02-27T00:58:56.506Z,75.38
2023-02-27T01:01:09.842Z,76.25
2023-02-27T01:03:23.188Z,75.77
2023-02-27T01:05:36.871Z,75.71
2023-02-27T01:07:50.463Z,75.81
2023-02-27T01:10:04.541Z,76.06
2023-02-27T01:12:18.341Z,75.93
2023-02-27T01:14:35.514Z,75.74
2023-02-27T01:16:49.563Z,75.84
2023-02-27T01:19:03.510Z,75.86
2023-02-27T01:21:16.935Z,76.20
2023-02-27T01:23:30.955Z,76.20
2023-02-27T01:25:44.194Z,76.19
2023-02-27T01:27:57.515Z,76.14
2023-02-27T01:30:13.817Z,76.17
2023-02-27T01:32:27.148Z,76.35
2023-02-27T01:34:40.978Z,76.41
2023-02-27T01:36:54.626Z,75.79
2023-02-27T01:39:07.954Z,75.21
2023-02-27T01:41:21.108Z,74.94
2023-02-27T01:43:34.918Z,74.89
2023-02-27T01:45:50.081Z,74.97
2023-02-27T01:48:09.818Z,75.37
2023-02-27T01:50:24.103Z,75.37
2023-02-27T01:52:39.459Z,75.57
2023-02-27T01:54:52.606Z,76.00
2023-02-27T01:57:08.136Z,76.02
2023-02-27T01:59:22.607Z,76.01
2023-02-27T02:01:38.318Z,76.24
2023-02-27T02:03:58.247Z,76.39
2023-02-27T02:06:13.463Z,76.54
2023-02-27T02:08:29.928Z,76.62
2023-02-27T02:10:43.534Z,76.69
2023-02-27T02:12:57.413Z,76.79
2023-02-27T02:15:12.244Z,76.88
2023-02-27T02:17:41.485Z,76.98
2023-02-27T02:20:27.095Z,77.22
2023-02-27T02:23:17.152Z,77.39
2023-02-27T02:26:03.279Z,77.52
2023-02-27T02:28:30.642Z,77.61
2023-02-27T02:31:24.424Z,77.84
2023-02-27T02:34:12.199Z,77.87
2023-02-27T02:37:00.237Z,77.93
2023-02-27T02:39:53.732Z,78.32
2023-02-27T02:42:07.593Z,78.62
2023-02-27T02:44:27.232Z,79.05
2023-02-27T02:46:50.916Z,79.50
2023-02-27T02:49:16.937Z,80.53
2023-02-27T02:51:39.408Z,81.01
2023-02-27T02:53:55.285Z,81.04
2023-02-27T02:56:14.706Z,81.36
2023-02-27T02:58:36.855Z,81.51
2023-02-27T03:00:56.470Z,81.40
2023-02-27T03:03:17.222Z,81.45
2023-02-27T03:05:40.645Z,81.40
2023-02-27T03:08:00.758Z,81.49
2023-02-27T03:10:19.823Z,81.59
2023-02-27T03:12:37.464Z,81.36
2023-02-27T03:14:55.763Z,81.22
2023-02-27T03:17:14.564Z,81.47
2023-02-27T03:19:34.753Z,81.47
2023-02-27T03:21:54.719Z,81.54
2023-02-27T03:24:15.558Z,81.69
2023-02-27T03:26:35.500Z,81.65
2023-02-27T03:28:59.040Z,81.83
2023-02-27T03:31:18.045Z,82.21
2023-02-27T03:33:36.477Z,82.07
2023-02-27T03:35:57.870Z,81.93
2023-02-27T03:38:22.297Z,81.81
2023-02-27T03:40:41.971Z,81.67
2023-02-27T03:43:06.693Z,82.49
2023-02-27T03:45:36.290Z,82.91
2023-02-27T03:47:49.926Z,82.56
2023-02-27T03:50:04.038Z,82.41
2023-02-27T03:52:19.887Z,82.44
2023-02-27T03:54:39.951Z,82.32
2023-02-27T03:56:59.814Z,82.48
2023-02-27T03:59:14.846Z,82.47
2023-02-27T04:01:33.007Z,82.51
2023-02-27T04:03:53.097Z,82.55
2023-02-27T04:06:38.571Z,82.27
2023-02-27T04:09:03.138Z,82.26
2023-02-27T04:11:35.234Z,82.14
2023-02-27T04:14:01.989Z,82.23
2023-02-27T04:16:41.806Z,82.20
2023-02-27T04:19:12.253Z,82.20
2023-02-27T04:21:33.056Z,82.08
2023-02-27T04:23:52.863Z,82.03
2023-02-27T04:26:20.367Z,82.30
2023-02-27T04:28:44.051Z,82.23
2023-02-27T04:31:06.814Z,82.29
2023-02-27T04:33:37.279Z,82.32
2023-02-27T04:35:55.689Z,82.44
2023-02-27T04:38:18.312Z,82.36
2023-02-27T04:40:38.352Z,82.28
2023-02-27T04:42:56.998Z,82.17
2023-02-27T04:45:15.545Z,82.24
2023-02-27T04:47:33.164Z,82.39
2023-02-27T04:49:54.925Z,82.55
2023-02-27T04:52:15.427Z,82.75
2023-02-27T04:54:36.634Z,82.81
2023-02-27T04:56:55.950Z,83.03
2023-02-27T04:59:15.519Z,82.97
2023-02-27T05:01:35.107Z,83.18
2023-02-27T05:03:52.305Z,83.25
2023-02-27T05:06:08.465Z,83.16
2023-02-27T05:08:27.973Z,83.13
2023-02-27T05:10:47.078Z,83.29
2023-02-27T05:13:06.643Z,83.31
2023-02-27T05:15:26.302Z,83.42
2023-02-27T05:17:46.454Z,83.31
2023-02-27T05:20:01.673Z,83.59
2023-02-27T05:22:27.985Z,83.63
2023-02-27T05:24:50.134Z,83.86
2023-02-27T05:27:36.419Z,83.91
2023-02-27T05:29:58.882Z,83.80
2023-02-27T05:32:23.251Z,83.75
2023-02-27T05:34:43.867Z,83.84
2023-02-27T05:37:05.731Z,83.90
2023-02-27T05:39:24.231Z,83.96
2023-02-27T05:41:45.243Z,83.84
2023-02-27T05:44:06.396Z,83.89
2023-02-27T05:46:24.557Z,83.98
2023-02-27T05:48:42.987Z,84.18
2023-02-27T05:50:58.418Z,84.12
2023-02-27T05:53:15.316Z,84.25
2023-02-27T05:55:34.757Z,84.28
2023-02-27T05:57:52.832Z,84.39
2023-02-27T06:00:12.506Z,84.40
2023-02-27T06:02:26.060Z,84.57
2023-02-27T06:04:40.473Z,84.59
2023-02-27T06:06:55.355Z,84.69
2023-02-27T06:09:08.554Z,84.80
2023-02-27T06:11:21.986Z,84.71
2023-02-27T06:13:35.352Z,84.76
2023-02-27T06:15:50.563Z,84.84
2023-02-27T06:18:04.339Z,84.96
2023-02-27T06:20:19.633Z,84.95
2023-02-27T06:22:33.012Z,84.95
2023-02-27T06:24:46.996Z,85.10
2023-02-27T06:27:00.549Z,85.06
2023-02-27T06:29:13.593Z,85.23
2023-02-27T06:31:26.952Z,85.30
2023-02-27T06:33:40.590Z,85.38
2023-02-27T06:35:57.041Z,85.32
2023-02-27T06:38:10.412Z,85.23
2023-02-27T06:40:24.144Z,85.36
2023-02-27T06:42:37.677Z,85.33
2023-02-27T06:44:51.358Z,85.40
2023-02-27T06:47:04.658Z,85.69
2023-02-27T06:49:18.707Z,85.68
2023-02-27T06:51:32.287Z,85.81
2023-02-27T06:53:45.525Z,85.80
2023-02-27T06:55:58.946Z,86.01
2023-02-27T06:58:12.925Z,85.99
2023-02-27T07:00:30.679Z,86.19
2023-02-27T07:02:43.900Z,86.34
2023-02-27T07:04:57.119Z,86.46
2023-02-27T07:07:35.795Z,86.22
2023-02-27T07:09:45.776Z,86.22
2023-02-27T07:11:59.284Z,86.08
2023-02-27T07:14:14.018Z,86.10
2023-02-27T07:16:28.029Z,86.02
2023-02-27T07:18:41.287Z,85.96
2023-02-27T07:20:56.565Z,86.03
2023-02-27T07:23:10.246Z,86.02
2023-02-27T07:25:23.536Z,85.76
2023-02-27T07:27:36.990Z,85.77
2023-02-27T07:29:50.057Z,85.98
2023-02-27T07:32:03.235Z,85.96
2023-02-27T07:34:17.024Z,86.17
2023-02-27T07:36:31.316Z,86.09
2023-02-27T07:38:44.896Z,86.09
2023-02-27T07:41:00.050Z,86.21
2023-02-27T07:43:13.908Z,86.34
2023-02-27T07:45:28.590Z,86.36
2023-02-27T07:47:41.904Z,86.60
2023-02-27T07:49:55.720Z,86.67
2023-02-27T07:52:09.517Z,86.68
2023-02-27T07:54:23.674Z,86.84
2023-02-27T07:56:36.961Z,86.94
2023-02-27T07:58:50.088Z,87.04
2023-02-27T08:01:04.272Z,86.99
2023-02-27T08:03:17.871Z,86.93
2023-02-27T08:05:32.403Z,87.19
2023-02-27T08:07:45.740Z,87.21
2023-02-27T08:09:59.447Z,87.22
2023-02-27T08:12:12.859Z,87.15
2023-02-27T08:14:27.133Z,87.11
2023-02-27T08:16:40.940Z,87.15
2023-02-27T08:18:54.466Z,87.19
2023-02-27T08:21:08.168Z,87.12
2023-02-27T08:23:21.104Z,87.14
2023-02-27T08:25:34.205Z,87.25
2023-02-27T08:27:47.963Z,87.37
2023-02-27T08:30:02.065Z,87.36
2023-02-27T08:32:15.632Z,87.54
2023-02-27T08:34:28.781Z,87.51
2023-02-27T08:36:42.521Z,87.58
2023-02-27T08:38:55.972Z,87.62
2023-02-27T08:41:09.822Z,87.68
2023-02-27T08:43:23.029Z,87.51
2023-02-27T08:45:36.432Z,87.39
2023-02-27T08:47:50.680Z,87.38
2023-02-27T08:50:04.579Z,87.36
2023-02-27T08:52:18.306Z,87.39
2023-02-27T08:54:33.205Z,87.49
2023-02-27T08:56:46.680Z,87.52
2023-02-27T08:59:00.799Z,87.70
2023-02-27T09:01:13.915Z,87.83
2023-02-27T09:03:29.770Z,87.76
2023-02-27T09:05:43.907Z,87.70
2023-02-27T09:07:56.934Z,87.77
2023-02-27T09:10:10.707Z,87.71
2023-02-27T09:12:23.862Z,87.73
2023-02-27T09:14:37.463Z,87.78
2023-02-27T09:16:50.874Z,87.74
2023-02-27T09:19:04.132Z,87.54
2023-02-27T09:21:17.462Z,87.40
2023-02-27T09:23:30.923Z,87.34
2023-02-27T09:25:43.943Z,87.41
2023-02-27T09:27:57.525Z,87.57
2023-02-27T09:30:16.080Z,87.71
2023-02-27T09:32:30.579Z,87.86
2023-02-27T09:34:43.541Z,88.00
2023-02-27T09:36:57.252Z,88.15
2023-02-27T09:39:11.979Z,88.38
2023-02-27T09:41:45.803Z,88.50
2023-02-27T09:43:59.982Z,88.52
2023-02-27T09:46:19.169Z,88.47
2023-02-27T09:48:38.653Z,88.57
2023-02-27T09:50:55.271Z,88.75
2023-02-27T09:53:10.043Z,88.82
2023-02-27T09:55:25.474Z,89.02
2023-02-27T09:57:49.729Z,89.23
2023-02-27T10:00:08.491Z,89.22
2023-02-27T10:02:36.866Z,89.23
2023-02-27T10:04:57.100Z,89.18
2023-02-27T10:07:19.831Z,89.26
2023-02-27T10:09:43.352Z,89.19
2023-02-27T10:12:10.019Z,89.07
2023-02-27T10:14:38.838Z,89.04
2023-02-27T10:16:54.734Z,88.87
2023-02-27T10:19:11.283Z,88.77
2023-02-27T10:21:31.054Z,88.80
2023-02-27T10:23:48.304Z,88.69
2023-02-27T10:26:02.106Z,88.77
2023-02-27T10:28:19.435Z,88.70
2023-02-27T10:30:35.108Z,88.87
2023-02-27T10:32:48.917Z,88.75
2023-02-27T10:35:11.489Z,88.95
2023-02-27T10:37:29.421Z,89.04
2023-02-27T10:39:51.245Z,88.81
2023-02-27T10:42:09.829Z,88.93
2023-02-27T10:44:23.095Z,89.02
2023-02-27T10:46:39.375Z,89.01
2023-02-27T10:48:52.404Z,88.92
2023-02-27T10:51:27.953Z,88.90
2023-02-27T10:53:41.083Z,89.09
2023-02-27T10:56:05.729Z,89.25
2023-02-27T10:58:24.444Z,89.22
2023-02-27T11:00:56.601Z,89.49
2023-02-27T11:03:11.151Z,89.40
2023-02-27T11:05:29.961Z,89.59
2023-02-27T11:07:44.132Z,89.59
2023-02-27T11:10:18.914Z,89.60
2023-02-27T11:12:33.879Z,89.52
2023-02-27T11:14:55.096Z,89.53
2023-02-27T11:17:09.350Z,89.52
2023-02-27T11:19:36.465Z,89.62
2023-02-27T11:22:06.903Z,89.60
2023-02-27T11:24:26.564Z,89.64
2023-02-27T11:26:41.278Z,89.91
2023-02-27T11:29:10.744Z,89.77
2023-02-27T11:31:27.784Z,90.01
2023-02-27T11:33:53.035Z,89.94
2023-02-27T11:36:06.005Z,89.99
2023-02-27T11:38:27.389Z,90.03
2023-02-27T11:40:43.245Z,89.99
2023-02-27T11:42:59.684Z,90.17
2023-02-27T11:46:11.168Z,90.03
2023-02-27T11:48:06.147Z,89.95
2023-02-27T11:50:47.189Z,89.92
2023-02-27T11:53:13.055Z,90.06
2023-02-27T11:55:30.705Z,90.11
2023-02-27T11:57:47.670Z,90.05
2023-02-27T12:00:07.755Z,89.82
2023-02-27T12:02:31.992Z,89.96
2023-02-27T12:04:54.587Z,89.92
2023-02-27T12:07:16.425Z,89.87
2023-02-27T12:09:42.870Z,89.74
2023-02-27T12:11:56.958Z,89.82
2023-02-27T12:14:15.139Z,89.60
2023-02-27T12:16:35.313Z,89.67
2023-02-27T12:18:53.842Z,89.87
2023-02-27T12:21:13.028Z,89.68
2023-02-27T12:23:32.605Z,89.78
2023-02-27T12:25:53.854Z,89.78
2023-02-27T12:28:15.534Z,89.92
2023-02-27T12:30:35.444Z,89.94
2023-02-27T12:32:53.423Z,89.70
2023-02-27T12:35:14.684Z,90.01
2023-02-27T12:37:31.026Z,90.19
2023-02-27T12:39:46.442Z,90.26
2023-02-27T12:42:28.531Z,90.15
2023-02-27T12:44:57.551Z,90.08
2023-02-27T12:47:25.735Z,90.12
2023-02-27T12:49:51.278Z,90.28
2023-02-27T12:52:15.869Z,90.17
2023-02-27T12:54:46.740Z,90.17
2023-02-27T12:57:10.029Z,90.17
2023-02-27T12:59:43.606Z,90.15
2023-02-27T13:02:03.285Z,90.08
2023-02-27T13:04:27.343Z,90.24
2023-02-27T13:06:47.574Z,90.31
2023-02-27T13:09:22.498Z,90.26
2023-02-27T13:11:48.696Z,90.13
2023-02-27T13:14:10.695Z,90.21
2023-02-27T13:16:30.116Z,90.33
2023-02-27T13:18:48.890Z,90.42
2023-02-27T13:21:09.268Z,90.16
2023-02-27T13:23:27.993Z,89.97
2023-02-27T13:25:45.715Z,89.99
2023-02-27T13:28:03.246Z,90.20
2023-02-27T13:30:26.110Z,90.15
2023-02-27T13:32:44.945Z,90.43
2023-02-27T13:35:04.327Z,90.38
2023-02-27T13:37:17.677Z,90.46
2023-02-27T13:40:02.916Z,90.33
2023-02-27T13:42:44.567Z,90.33
2023-02-27T13:44:58.290Z,90.33
2023-02-27T13:47:52.108Z,90.37
2023-02-27T13:50:06.190Z,90.23
2023-02-27T13:52:31.577Z,90.17
2023-02-27T13:54:47.856Z,90.18
2023-02-27T13:57:25.595Z,90.26
2023-02-27T13:59:40.814Z,90.31
2023-02-27T14:01:58.767Z,90.18
2023-02-27T14:04:21.204Z,90.21
2023-02-27T14:06:32.717Z,90.12
2023-02-27T14:09:02.116Z,90.20
2023-02-27T14:11:30.015Z,90.27
2023-02-27T14:14:04.616Z,90.20
2023-02-27T14:16:38.316Z,90.29
2023-02-27T14:19:00.468Z,90.40
2023-02-27T14:21:14.253Z,90.24
2023-02-27T14:23:31.543Z,90.09
2023-02-27T14:25:48.973Z,89.95
2023-02-27T14:28:05.571Z,90.06
2023-02-27T14:30:35.753Z,90.10
2023-02-27T14:32:49.570Z,89.86
2023-02-27T14:35:03.626Z,89.88
2023-02-27T14:37:22.884Z,89.95
2023-02-27T14:39:38.356Z,89.98
2023-02-27T14:41:59.579Z,89.82
2023-02-27T14:44:24.812Z,89.90
2023-02-27T14:46:41.923Z,89.89
2023-02-27T14:49:00.140Z,89.83
2023-02-27T14:51:13.993Z,89.73
2023-02-27T14:53:31.795Z,89.68
2023-02-27T14:55:45.075Z,89.58
2023-02-27T14:58:12.176Z,89.61
2023-02-27T15:00:43.175Z,89.39
2023-02-27T15:02:57.377Z,89.19
2023-02-27T15:05:26.468Z,89.15
2023-02-27T15:07:41.260Z,89.08
2023-02-27T15:09:57.483Z,89.09
2023-02-27T15:12:12.033Z,89.05
2023-02-27T15:14:33.602Z,89.12
2023-02-27T15:16:47.753Z,89.29
2023-02-27T15:19:03.816Z,89.49
2023-02-27T15:21:23.405Z,89.47
2023-02-27T15:23:37.045Z,89.65
2023-02-27T15:25:50.234Z,89.73
2023-02-27T15:28:09.747Z,90.20
2023-02-27T15:30:30.421Z,90.31
2023-02-27T15:32:46.507Z,90.37
2023-02-27T15:35:00.667Z,90.40
2023-02-27T15:37:19.860Z,90.53
2023-02-27T15:39:36.287Z,90.36
2023-02-27T15:41:53.954Z,90.36
2023-02-27T15:44:07.965Z,90.16
2023-02-27T15:46:21.091Z,90.33
2023-02-27T15:48:36.092Z,90.12
2023-02-27T15:50:52.669Z,90.08
2023-02-27T15:53:14.486Z,90.22
2023-02-27T15:55:31.983Z,90.07
2023-02-27T15:57:56.498Z,89.82
2023-02-27T16:00:21.826Z,89.89
2023-02-27T16:02:41.918Z,90.01
2023-02-27T16:04:55.937Z,89.99
2023-02-27T16:07:18.902Z,89.86
2023-02-27T16:09:36.760Z,89.96
2023-02-27T16:12:24.891Z,89.85
2023-02-27T16:14:49.352Z,89.65
2023-02-27T16:17:03.431Z,89.95
2023-02-27T16:19:33.698Z,89.76
2023-02-27T16:22:15.424Z,89.78
2023-02-27T16:24:36.234Z,89.68
2023-02-27T16:26:53.632Z,89.71
2023-02-27T16:29:09.721Z,89.86
2023-02-27T16:31:30.153Z,89.90
2023-02-27T16:33:43.912Z,89.96
2023-02-27T16:36:21.960Z,89.75
2023-02-27T16:38:35.013Z,89.34
2023-02-27T16:40:48.499Z,89.35
2023-02-27T16:43:02.643Z,89.12
2023-02-27T16:45:20.960Z,88.87
2023-02-27T16:47:34.126Z,88.49
2023-02-27T16:49:48.498Z,88.49
2023-02-27T16:52:02.464Z,88.40
2023-02-27T16:54:17.746Z,88.43
2023-02-27T16:56:38.113Z,88.26
2023-02-27T16:58:52.810Z,88.36
2023-02-27T17:01:05.808Z,88.13
2023-02-27T17:03:18.872Z,88.31
2023-02-27T17:05:32.892Z,88.48
2023-02-27T17:07:46.848Z,89.00
2023-02-27T17:10:01.328Z,89.28
2023-02-27T17:12:14.895Z,89.30
2023-02-27T17:14:28.347Z,88.93
2023-02-27T17:16:41.714Z,89.31
2023-02-27T17:18:54.976Z,89.96
2023-02-27T17:21:08.483Z,90.41
2023-02-27T17:23:23.576Z,90.74
2023-02-27T17:25:36.757Z,90.35
2023-02-27T17:27:51.012Z,89.78
2023-02-27T17:30:04.739Z,89.59
2023-02-27T17:32:17.748Z,88.91
2023-02-27T17:34:31.235Z,89.06
2023-02-27T17:36:44.708Z,87.85
2023-02-27T17:39:05.659Z,86.25
2023-02-27T17:41:19.477Z,83.87
2023-02-27T17:43:32.567Z,84.50
2023-02-27T17:45:46.661Z,83.88
2023-02-27T17:47:59.894Z,82.09
2023-02-27T17:50:18.236Z,82.03
2023-02-27T17:52:31.339Z,81.80
2023-02-27T17:54:44.653Z,81.67
2023-02-27T17:56:57.611Z,81.13
2023-02-27T17:59:10.853Z,80.51
2023-02-27T18:01:26.844Z,80.32
2023-02-27T18:03:40.033Z,79.65
2023-02-27T18:05:57.183Z,80.33
2023-02-27T18:08:10.613Z,80.51
2023-02-27T18:10:24.223Z,80.33
2023-02-27T18:12:37.492Z,80.39
2023-02-27T18:14:51.212Z,80.67
2023-02-27T18:17:04.445Z,80.77
2023-02-27T18:19:19.981Z,80.87
2023-02-27T18:21:33.441Z,81.34
2023-02-27T18:23:47.581Z,81.59
2023-02-27T18:26:02.861Z,81.96
2023-02-27T18:28:16.698Z,82.14
2023-02-27T18:30:30.940Z,82.39
2023-02-27T18:32:45.289Z,82.58
2023-02-27T18:34:58.932Z,82.33
2023-02-27T18:37:13.293Z,82.83
2023-02-27T18:39:26.493Z,82.89
2023-02-27T18:41:40.483Z,83.00
2023-02-27T18:43:53.819Z,80.89
2023-02-27T18:46:08.059Z,81.27
2023-02-27T18:48:22.077Z,79.45
2023-02-27T18:50:35.723Z,79.77
2023-02-27T18:52:49.923Z,79.75
2023-02-27T18:55:03.423Z,77.15
2023-02-27T18:57:17.120Z,77.36
2023-02-27T18:59:30.617Z,76.95
2023-02-27T19:01:44.683Z,77.45
2023-02-27T19:04:04.724Z,77.57
2023-02-27T19:06:18.131Z,78.13
2023-02-27T19:08:31.836Z,77.22
2023-02-27T19:10:47.704Z,75.29
2023-02-27T19:13:00.974Z,75.47
2023-02-27T19:15:16.025Z,76.57
2023-02-27T19:17:29.067Z,76.92
2023-02-27T19:19:42.954Z,76.32
2023-02-27T19:21:56.413Z,75.24
2023-02-27T19:24:10.026Z,75.98
2023-02-27T19:26:23.034Z,76.09
2023-02-27T19:28:36.367Z,76.61
2023-02-27T19:30:49.628Z,75.66
2023-02-27T19:33:02.561Z,76.06
2023-02-27T19:35:16.544Z,75.99
2023-02-27T19:37:29.423Z,74.89
2023-02-27T19:39:43.225Z,74.98
2023-02-27T19:41:56.256Z,75.41
2023-02-27T19:44:09.635Z,75.57
2023-02-27T19:46:25.036Z,75.93
2023-02-27T19:48:38.465Z,75.37
2023-02-27T19:50:51.423Z,75.54
2023-02-27T19:53:04.573Z,75.65
2023-02-27T19:55:17.764Z,75.68
2023-02-27T19:57:31.202Z,75.99
2023-02-27T19:59:44.525Z,75.99
2023-02-27T20:02:01.472Z,75.79
2023-02-27T20:04:15.689Z,75.69
2023-02-27T20:06:31.237Z,75.56
2023-02-27T20:08:44.424Z,74.29
2023-02-27T20:11:07.589Z,74.24
2023-02-27T20:13:20.646Z,73.01
2023-02-27T20:15:33.974Z,73.03
2023-02-27T20:17:47.282Z,73.45
2023-02-27T20:20:01.269Z,74.25
2023-02-27T20:22:14.963Z,73.23
2023-02-27T20:24:28.498Z,73.75
2023-02-27T20:26:43.859Z,73.01
2023-02-27T20:28:58.892Z,73.39
2023-02-27T20:31:15.920Z,74.07
2023-02-27T20:33:29.142Z,74.30
2023-02-27T20:35:45.123Z,73.72
2023-02-27T20:37:58.342Z,73.43
2023-02-27T20:40:13.643Z,72.66
2023-02-27T20:42:27.972Z,72.77
2023-02-27T20:44:41.753Z,72.63
2023-02-27T20:46:55.213Z,71.64
2023-02-27T20:49:11.344Z,70.61
2023-02-27T20:51:27.301Z,70.60
2023-02-27T20:53:43.114Z,70.12
2023-02-27T20:55:59.433Z,69.15
2023-02-27T20:58:12.909Z,69.52
2023-02-27T21:00:30.685Z,69.51
2023-02-27T21:02:45.747Z,70.06
2023-02-27T21:05:00.642Z,70.67
2023-02-27T21:07:14.205Z,71.18
2023-02-27T21:09:27.407Z,71.25
2023-02-27T21:11:40.986Z,71.19
2023-02-27T21:13:54.564Z,71.32
2023-02-27T21:16:10.365Z,71.42
2023-02-27T21:18:24.206Z,71.39
2023-02-27T21:20:46.270Z,71.60
2023-02-27T21:22:59.427Z,71.58
2023-02-27T21:25:13.398Z,71.61
2023-02-27T21:27:26.435Z,70.89
2023-02-27T21:29:39.563Z,70.50
2023-02-27T21:31:54.773Z,71.00
2023-02-27T21:34:10.197Z,71.22
2023-02-27T21:36:27.613Z,71.65
2023-02-27T21:38:40.731Z,72.39
2023-02-27T21:40:53.683Z,72.73
2023-02-27T21:43:07.261Z,71.82
2023-02-27T21:45:20.923Z,71.63
2023-02-27T21:47:34.688Z,71.34
2023-02-27T21:49:47.633Z,71.02
2023-02-27T21:52:01.503Z,70.14
2023-02-27T21:54:16.964Z,69.77
2023-02-27T21:56:31.432Z,69.94
2023-02-27T21:58:45.726Z,69.54
2023-02-27T22:00:58.853Z,69.42
2023-02-27T22:03:12.925Z,69.56
2023-02-27T22:05:26.171Z,69.32
2023-02-27T22:07:40.292Z,69.69
2023-02-27T22:09:53.558Z,69.45
2023-02-27T22:12:07.324Z,68.99
2023-02-27T22:14:20.883Z,69.48
2023-02-27T22:16:35.209Z,69.55
2023-02-27T22:18:48.873Z,69.71
2023-02-27T22:21:02.804Z,69.46
2023-02-27T22:23:16.463Z,69.81
2023-02-27T22:25:29.482Z,70.32
2023-02-27T22:27:42.861Z,71.08
2023-02-27T22:29:56.152Z,71.38
2023-02-27T22:32:09.495Z,71.73
2023-02-27T22:34:23.379Z,72.20
2023-02-27T22:36:37.412Z,72.46
2023-02-27T22:38:51.382Z,72.57
2023-02-27T22:41:10.512Z,72.33
2023-02-27T22:43:23.972Z,72.14
2023-02-27T22:45:36.941Z,72.20
2023-02-27T22:47:50.423Z,72.54
2023-02-27T22:50:03.399Z,72.89
2023-02-27T22:52:16.293Z,72.89
2023-02-27T22:54:29.762Z,72.67
2023-02-27T22:56:43.588Z,72.74
2023-02-27T22:58:56.875Z,72.60
2023-02-27T23:01:14.027Z,73.17
2023-02-27T23:03:27.181Z,73.40
2023-02-27T23:05:47.581Z,73.36
2023-02-27T23:08:01.085Z,73.39
2023-02-27T23:10:16.792Z,73.67
2023-02-27T23:12:30.127Z,73.98
2023-02-27T23:14:43.728Z,74.12
2023-02-27T23:16:57.154Z,73.99
2023-02-27T23:19:10.452Z,74.12
2023-02-27T23:21:26.319Z,74.08
2023-02-27T23:23:40.228Z,74.30
2023-02-27T23:25:54.761Z,74.44
2023-02-27T23:28:09.029Z,74.38
2023-02-27T23:30:25.502Z,74.54
2023-02-27T23:32:44.696Z,74.54
2023-02-27T23:34:58.176Z,75.02
2023-02-27T23:37:11.954Z,74.80
2023-02-27T23:39:25.180Z,74.79
2023-02-27T23:41:38.538Z,74.96
2023-02-27T23:43:55.090Z,75.33
2023-02-27T23:46:12.152Z,75.53
2023-02-27T23:48:25.461Z,75.87
2023-02-27T23:50:41.081Z,76.42
2023-02-27T23:52:55.845Z,77.09
2023-02-27T23:55:11.225Z,77.19
2023-02-27T23:57:25.200Z,77.50
2023-02-27T23:59:38.427Z,77.48
